createdAt,value
2018-11-29T00:00:55.288Z,5.58
2018-11-29T00:01:55.274Z,5.45
2018-11-29T00:02:55.259Z,5.42
2018-11-29T00:03:55.245Z,5.47
2018-11-29T00:04:55.229Z,5.58
2018-11-29T00:05:55.214Z,5.67
2018-11-29T00:06:55.204Z,5.77
2018-11-29T00:07:55.185Z,5.75
2018-11-29T00:08:55.171Z,5.96
2018-11-29T00:09:55.155Z,5.93
2018-11-29T00:10:55.139Z,5.96
2018-11-29T00:11:55.126Z,5.93
2018-11-29T00:12:55.112Z,5.95
2018-11-29T00:13:55.096Z,5.98
2018-11-29T00:14:55.083Z,6.10
2018-11-29T00:15:55.068Z,6.03
2018-11-29T00:16:55.051Z,5.98
2018-11-29T00:17:55.040Z,6.10
2018-11-29T00:18:55.023Z,6.05
2018-11-29T00:19:55.007Z,5.96
2018-11-29T00:20:54.990Z,6.01
2018-11-29T00:21:54.976Z,5.95
2018-11-29T00:22:54.964Z,5.95
2018-11-29T00:23:54.949Z,6.05
2018-11-29T00:24:54.931Z,6.02
2018-11-29T00:25:54.918Z,6.13
2018-11-29T00:26:54.905Z,6.24
2018-11-29T00:27:54.889Z,6.21
2018-11-29T00:28:54.872Z,6.24
2018-11-29T00:29:54.860Z,6.25
2018-11-29T00:30:54.848Z,6.19
2018-11-29T00:31:54.830Z,6.21
2018-11-29T00:32:54.814Z,6.14
2018-11-29T00:33:54.800Z,6.16
2018-11-29T00:34:54.784Z,6.17
2018-11-29T00:35:54.769Z,6.05
2018-11-29T00:36:54.754Z,6.14
2018-11-29T00:37:54.742Z,6.13
2018-11-29T00:38:54.724Z,6.06
2018-11-29T00:39:54.710Z,6.05
2018-11-29T00:40:54.695Z,5.98
2018-11-29T00:41:54.681Z,6.02
2018-11-29T00:42:54.669Z,5.96
2018-11-29T00:43:54.652Z,6.05
2018-11-29T00:44:54.636Z,5.96
2018-11-29T00:45:54.621Z,5.95
2018-11-29T00:46:54.607Z,5.96
2018-11-29T00:47:54.591Z,5.87
2018-11-29T00:48:54.575Z,5.81
2018-11-29T00:49:54.560Z,5.83
2018-11-29T00:50:54.546Z,5.80
2018-11-29T00:51:54.531Z,5.87
2018-11-29T00:52:54.516Z,5.87
2018-11-29T00:53:54.502Z,5.87
2018-11-29T00:54:54.486Z,5.88
2018-11-29T00:55:54.478Z,5.83
2018-11-29T00:56:54.455Z,5.80
2018-11-29T00:57:54.441Z,5.70
2018-11-29T00:58:54.426Z,5.73
2018-11-29T00:59:54.413Z,5.80
2018-11-29T01:00:54.395Z,5.90
2018-11-29T01:01:54.382Z,5.75
2018-11-29T01:02:54.370Z,5.85
2018-11-29T01:03:54.353Z,5.85
2018-11-29T01:04:54.337Z,5.85
2018-11-29T01:05:54.321Z,5.90
2018-11-29T01:06:54.310Z,5.95
2018-11-29T01:07:54.293Z,5.96
2018-11-29T01:08:54.277Z,5.95
2018-11-29T01:09:54.265Z,5.92
2018-11-29T01:10:54.248Z,5.87
2018-11-29T01:11:54.235Z,5.98
2018-11-29T01:12:54.219Z,5.81
2018-11-29T01:13:54.203Z,5.73
2018-11-29T01:14:54.191Z,5.80
2018-11-29T01:15:54.174Z,5.75
2018-11-29T01:16:54.159Z,5.78
2018-11-29T01:17:54.145Z,5.67
2018-11-29T01:18:54.127Z,5.77
2018-11-29T01:19:54.114Z,5.74
2018-11-29T01:20:54.102Z,5.92
2018-11-29T01:21:54.084Z,5.70
2018-11-29T01:22:54.070Z,5.70
2018-11-29T01:23:54.055Z,5.75
2018-11-29T01:24:54.037Z,5.75
2018-11-29T01:25:54.026Z,5.70
2018-11-29T01:26:54.009Z,5.59
2018-11-29T01:27:53.995Z,5.66
2018-11-29T01:28:53.980Z,5.45
2018-11-29T01:29:53.966Z,5.52
2018-11-29T01:30:53.949Z,5.47
2018-11-29T01:31:53.938Z,5.44
2018-11-29T01:32:53.920Z,5.47
2018-11-29T01:33:53.905Z,5.52
2018-11-29T01:34:53.892Z,5.35
2018-11-29T01:35:53.878Z,5.29
2018-11-29T01:36:53.860Z,5.27
2018-11-29T01:37:53.847Z,5.19
2018-11-29T01:38:53.830Z,5.20
2018-11-29T01:39:53.816Z,5.27
2018-11-29T01:40:53.801Z,5.19
2018-11-29T01:41:53.787Z,5.15
2018-11-29T01:42:53.773Z,5.19
2018-11-29T01:43:53.756Z,5.22
2018-11-29T01:44:53.741Z,5.22
2018-11-29T01:45:53.726Z,5.15
2018-11-29T01:46:53.710Z,5.29
2018-11-29T01:47:53.741Z,5.23
2018-11-29T01:48:53.681Z,5.27
2018-11-29T01:49:53.667Z,5.27
2018-11-29T01:50:53.654Z,5.41
2018-11-29T01:51:53.638Z,5.48
2018-11-29T01:52:53.621Z,5.60
2018-11-29T01:53:53.608Z,5.62
2018-11-29T01:54:53.592Z,5.62
2018-11-29T01:55:53.578Z,5.56
2018-11-29T01:56:53.563Z,5.58
2018-11-29T01:57:53.550Z,5.60
2018-11-29T01:58:53.532Z,5.59
2018-11-29T01:59:53.518Z,5.58
2018-11-29T02:00:53.503Z,5.55
2018-11-29T02:01:53.487Z,5.59
2018-11-29T02:02:53.473Z,5.67
2018-11-29T02:03:53.459Z,5.75
2018-11-29T02:04:53.444Z,5.74
2018-11-29T02:05:53.428Z,5.88
2018-11-29T02:06:53.417Z,5.84
2018-11-29T02:07:53.397Z,5.98
2018-11-29T02:08:53.383Z,5.99
2018-11-29T02:09:53.370Z,6.02
2018-11-29T02:10:53.353Z,5.96
2018-11-29T02:11:53.342Z,5.98
2018-11-29T02:12:53.323Z,6.05
2018-11-29T02:13:53.310Z,6.06
2018-11-29T02:14:53.298Z,6.10
2018-11-29T02:15:53.279Z,5.99
2018-11-29T02:16:53.263Z,5.99
2018-11-29T02:17:53.254Z,5.92
2018-11-29T02:18:53.237Z,5.95
2018-11-29T02:19:53.221Z,5.83
2018-11-29T02:20:53.204Z,5.93
2018-11-29T02:21:53.189Z,5.93
2018-11-29T02:22:53.174Z,5.98
2018-11-29T02:23:53.159Z,6.05
2018-11-29T02:24:53.144Z,6.06
2018-11-29T02:25:53.130Z,6.03
2018-11-29T02:26:53.120Z,6.10
2018-11-29T02:27:53.099Z,6.06
2018-11-29T02:28:53.085Z,6.08
2018-11-29T02:29:53.070Z,6.08
2018-11-29T02:30:53.054Z,5.93
2018-11-29T02:31:53.040Z,5.96
2018-11-29T02:32:53.024Z,5.99
2018-11-29T02:33:53.011Z,6.08
2018-11-29T02:34:52.995Z,6.20
2018-11-29T02:35:52.985Z,6.05
2018-11-29T02:36:52.967Z,6.08
2018-11-29T02:37:52.952Z,6.08
2018-11-29T02:38:52.945Z,6.06
2018-11-29T02:39:52.923Z,6.05
2018-11-29T02:40:52.904Z,6.05
2018-11-29T02:41:52.891Z,5.95
2018-11-29T02:42:52.877Z,5.87
2018-11-29T02:43:52.861Z,5.88
2018-11-29T02:44:52.845Z,5.95
2018-11-29T02:45:52.830Z,6.02
2018-11-29T02:46:52.816Z,5.85
2018-11-29T02:47:52.801Z,5.80
2018-11-29T02:48:52.786Z,5.74
2018-11-29T02:49:52.770Z,5.75
2018-11-29T02:50:52.758Z,5.63
2018-11-29T02:51:52.746Z,5.47
2018-11-29T02:52:52.725Z,5.42
2018-11-29T02:53:52.711Z,5.27
2018-11-29T02:54:52.696Z,5.19
2018-11-29T02:55:52.681Z,5.19
2018-11-29T02:56:52.666Z,5.15
2018-11-29T02:57:52.649Z,5.06
2018-11-29T02:58:52.636Z,5.02
2018-11-29T02:59:52.619Z,5.08
2018-11-29T03:00:52.606Z,5.24
2018-11-29T03:01:52.591Z,5.22
2018-11-29T03:02:52.596Z,5.19
2018-11-29T03:03:52.560Z,5.23
2018-11-29T03:04:52.545Z,5.17
2018-11-29T03:05:52.531Z,5.35
2018-11-29T03:06:52.515Z,5.27
2018-11-29T03:07:52.500Z,5.11
2018-11-29T03:08:52.499Z,5.08
2018-11-29T03:09:52.468Z,5.12
2018-11-29T03:10:52.455Z,5.11
2018-11-29T03:11:52.439Z,5.14
2018-11-29T03:12:52.422Z,5.12
2018-11-29T03:13:52.409Z,5.22
2018-11-29T03:14:52.395Z,5.37
2018-11-29T03:15:52.380Z,5.37
2018-11-29T03:16:52.362Z,5.44
2018-11-29T03:17:52.348Z,5.37
2018-11-29T03:18:52.358Z,5.33
2018-11-29T03:19:52.317Z,5.33
2018-11-29T03:20:52.302Z,5.17
2018-11-29T03:21:52.288Z,5.12
2018-11-29T03:22:52.272Z,5.01
2018-11-29T03:23:52.256Z,4.93
2018-11-29T03:24:52.239Z,4.91
2018-11-29T03:25:52.227Z,4.88
2018-11-29T03:26:52.210Z,4.80
2018-11-29T03:27:52.194Z,4.72
2018-11-29T03:28:52.179Z,4.74
2018-11-29T03:29:52.165Z,4.56
2018-11-29T03:30:52.151Z,4.47
2018-11-29T03:31:52.138Z,4.43
2018-11-29T03:32:52.133Z,4.42
2018-11-29T03:33:52.104Z,4.43
2018-11-29T03:34:52.088Z,4.39
2018-11-29T03:35:52.075Z,4.32
2018-11-29T03:36:52.057Z,4.31
2018-11-29T03:37:52.043Z,4.18
2018-11-29T03:38:52.027Z,4.17
2018-11-29T03:39:52.012Z,4.14
2018-11-29T03:40:51.996Z,4.16
2018-11-29T03:41:51.981Z,4.21
2018-11-29T03:42:51.966Z,4.35
2018-11-29T03:43:51.950Z,4.36
2018-11-29T03:44:51.935Z,4.47
2018-11-29T03:45:51.920Z,4.57
2018-11-29T03:46:51.903Z,4.51
2018-11-29T03:47:51.888Z,4.59
2018-11-29T03:48:51.874Z,4.65
2018-11-29T03:49:51.858Z,4.62
2018-11-29T03:50:51.845Z,4.61
2018-11-29T03:51:51.828Z,4.69
2018-11-29T03:52:51.812Z,4.64
2018-11-29T03:53:51.796Z,4.62
2018-11-29T03:54:51.780Z,4.83
2018-11-29T03:55:51.766Z,4.77
2018-11-29T03:56:51.749Z,4.90
2018-11-29T03:57:51.737Z,4.75
2018-11-29T03:58:51.721Z,4.80
2018-11-29T03:59:51.707Z,4.67
2018-11-29T04:00:51.691Z,4.77
2018-11-29T04:01:51.674Z,4.84
2018-11-29T04:02:51.657Z,5.02
2018-11-29T04:03:51.646Z,5.17
2018-11-29T04:04:51.626Z,5.12
2018-11-29T04:05:51.613Z,5.23
2018-11-29T04:06:51.599Z,5.24
2018-11-29T04:07:51.581Z,5.38
2018-11-29T04:08:51.567Z,5.42
2018-11-29T04:09:51.550Z,5.48
2018-11-29T04:10:51.536Z,5.48
2018-11-29T04:11:51.519Z,5.65
2018-11-29T04:12:51.506Z,5.56
2018-11-29T04:13:51.488Z,5.49
2018-11-29T04:14:51.473Z,5.35
2018-11-29T04:15:51.458Z,5.20
2018-11-29T04:16:51.445Z,5.20
2018-11-29T04:17:51.429Z,5.08
2018-11-29T04:18:51.411Z,5.22
2018-11-29T04:19:51.398Z,5.20
2018-11-29T04:20:51.387Z,5.08
2018-11-29T04:21:51.367Z,5.12
2018-11-29T04:22:51.353Z,5.19
2018-11-29T04:23:51.346Z,5.05
2018-11-29T04:24:51.320Z,4.93
2018-11-29T04:25:51.307Z,4.96
2018-11-29T04:26:51.289Z,5.01
2018-11-29T04:27:51.275Z,5.14
2018-11-29T04:28:51.259Z,5.11
2018-11-29T04:29:51.247Z,5.26
2018-11-29T04:30:51.229Z,5.05
2018-11-29T04:31:51.214Z,5.05
2018-11-29T04:32:51.207Z,5.05
2018-11-29T04:33:51.181Z,4.94
2018-11-29T04:34:51.167Z,4.96
2018-11-29T04:35:51.151Z,4.90
2018-11-29T04:36:51.135Z,4.80
2018-11-29T04:37:51.122Z,4.74
2018-11-29T04:38:51.105Z,4.62
2018-11-29T04:39:51.114Z,4.57
2018-11-29T04:40:51.078Z,4.53
2018-11-29T04:41:51.060Z,4.43
2018-11-29T04:42:51.043Z,4.35
2018-11-29T04:43:51.031Z,4.31
2018-11-29T04:44:51.014Z,4.21
2018-11-29T04:45:50.998Z,4.20
2018-11-29T04:46:50.985Z,4.20
2018-11-29T04:47:50.965Z,4.18
2018-11-29T04:48:50.953Z,4.14
2018-11-29T04:49:50.938Z,4.16
2018-11-29T04:50:50.922Z,4.00
2018-11-29T04:51:50.908Z,3.95
2018-11-29T04:52:50.893Z,3.98
2018-11-29T04:53:50.875Z,4.06
2018-11-29T04:54:50.860Z,3.96
2018-11-29T04:55:50.845Z,3.96
2018-11-29T04:56:50.830Z,4.00
2018-11-29T04:57:50.812Z,3.99
2018-11-29T04:58:50.797Z,4.02
2018-11-29T04:59:50.782Z,4.13
2018-11-29T05:00:50.765Z,4.17
2018-11-29T05:01:50.750Z,4.18
2018-11-29T05:02:50.738Z,4.24
2018-11-29T05:03:50.721Z,4.16
2018-11-29T05:04:50.704Z,4.28
2018-11-29T05:05:50.687Z,4.32
2018-11-29T05:06:50.671Z,4.50
2018-11-29T05:07:50.656Z,4.42
2018-11-29T05:08:50.646Z,4.49
2018-11-29T05:09:50.624Z,4.39
2018-11-29T05:10:50.610Z,4.42
2018-11-29T05:11:50.596Z,4.32
2018-11-29T05:12:50.578Z,4.21
2018-11-29T05:13:50.564Z,4.16
2018-11-29T05:14:50.549Z,4.10
2018-11-29T05:15:50.532Z,4.25
2018-11-29T05:16:50.523Z,4.25
2018-11-29T05:17:50.499Z,4.25
2018-11-29T05:18:50.486Z,4.26
2018-11-29T05:19:50.469Z,4.18
2018-11-29T05:20:50.454Z,4.43
2018-11-29T05:21:50.439Z,4.64
2018-11-29T05:22:50.424Z,4.53
2018-11-29T05:23:50.410Z,4.56
2018-11-29T05:24:50.394Z,4.83
2018-11-29T05:25:50.377Z,4.68
2018-11-29T05:26:50.361Z,4.68
2018-11-29T05:27:50.350Z,4.64
2018-11-29T05:28:50.331Z,4.71
2018-11-29T05:29:50.314Z,4.71
2018-11-29T05:30:50.300Z,4.80
2018-11-29T05:31:50.286Z,4.67
2018-11-29T05:32:50.269Z,4.69
2018-11-29T05:33:50.252Z,4.62
2018-11-29T05:34:50.237Z,4.53
2018-11-29T05:35:50.226Z,4.39
2018-11-29T05:36:50.203Z,4.51
2018-11-29T05:37:50.189Z,4.36
2018-11-29T05:38:50.174Z,4.28
2018-11-29T05:39:50.157Z,4.20
2018-11-29T05:40:50.142Z,4.11
2018-11-29T05:41:50.126Z,3.98
2018-11-29T05:42:50.111Z,3.99
2018-11-29T05:43:50.094Z,4.17
2018-11-29T05:44:50.080Z,3.92
2018-11-29T05:45:50.069Z,3.93
2018-11-29T05:46:50.055Z,3.75
2018-11-29T05:47:50.032Z,3.84
2018-11-29T05:48:50.015Z,3.74
2018-11-29T05:49:49.998Z,3.75
2018-11-29T05:50:49.983Z,3.75
2018-11-29T05:51:49.971Z,3.72
2018-11-29T05:52:49.951Z,3.74
2018-11-29T05:53:49.935Z,3.78
2018-11-29T05:54:49.924Z,3.74
2018-11-29T05:55:49.906Z,3.77
2018-11-29T05:56:49.894Z,3.72
2018-11-29T05:57:49.878Z,3.96
2018-11-29T05:58:49.860Z,3.93
2018-11-29T05:59:49.844Z,4.04
2018-11-29T06:00:49.828Z,4.04
2018-11-29T06:01:49.815Z,4.00
2018-11-29T06:02:49.796Z,3.99
2018-11-29T06:03:49.779Z,4.00
2018-11-29T06:04:49.762Z,3.90
2018-11-29T06:05:49.748Z,3.86
2018-11-29T06:06:49.738Z,3.77
2018-11-29T06:07:49.716Z,3.84
2018-11-29T06:08:49.701Z,3.78
2018-11-29T06:09:49.682Z,3.81
2018-11-29T06:10:49.668Z,3.81
2018-11-29T06:11:49.653Z,3.80
2018-11-29T06:12:49.637Z,3.75
2018-11-29T06:13:49.621Z,3.71
2018-11-29T06:14:49.604Z,3.60
2018-11-29T06:15:49.592Z,3.75
2018-11-29T06:16:49.572Z,3.78
2018-11-29T06:17:49.556Z,4.13
2018-11-29T06:18:49.539Z,4.04
2018-11-29T06:19:49.524Z,4.02
2018-11-29T06:20:49.508Z,4.21
2018-11-29T06:21:49.493Z,4.20
2018-11-29T06:22:49.477Z,4.34
2018-11-29T06:23:49.459Z,4.53
2018-11-29T06:24:49.443Z,4.61
2018-11-29T06:25:49.428Z,4.67
2018-11-29T06:26:49.412Z,4.79
2018-11-29T06:27:49.403Z,4.80
2018-11-29T06:28:49.383Z,4.88
2018-11-29T06:29:49.367Z,4.83
2018-11-29T06:30:49.352Z,4.83
2018-11-29T06:31:49.335Z,4.84
2018-11-29T06:32:49.319Z,4.84
2018-11-29T06:33:49.305Z,4.84
2018-11-29T06:34:49.289Z,4.83
2018-11-29T06:35:49.272Z,4.87
2018-11-29T06:36:49.256Z,4.91
2018-11-29T06:37:49.240Z,4.87
2018-11-29T06:38:49.225Z,4.84
2018-11-29T06:39:49.209Z,4.84
2018-11-29T06:40:49.192Z,4.94
2018-11-29T06:41:49.176Z,4.87
2018-11-29T06:42:49.161Z,4.84
2018-11-29T06:43:49.146Z,4.83
2018-11-29T06:44:49.131Z,4.79
2018-11-29T06:45:49.115Z,4.80
2018-11-29T06:46:49.099Z,4.84
2018-11-29T06:47:49.083Z,4.86
2018-11-29T06:48:49.070Z,4.84
2018-11-29T06:49:49.052Z,4.84
2018-11-29T06:50:49.041Z,4.74
2018-11-29T06:51:50.096Z,4.71
2018-11-29T06:52:49.006Z,4.75
2018-11-29T06:53:48.990Z,4.84
2018-11-29T06:54:48.973Z,4.87
2018-11-29T06:55:48.959Z,4.84
2018-11-29T06:56:48.941Z,4.86
2018-11-29T06:57:48.926Z,4.96
2018-11-29T06:58:48.911Z,4.94
2018-11-29T06:59:48.898Z,4.90
2018-11-29T07:00:48.879Z,4.79
2018-11-29T07:01:48.864Z,4.84
2018-11-29T07:02:48.847Z,4.93
2018-11-29T07:03:48.837Z,4.84
2018-11-29T07:04:48.816Z,4.87
2018-11-29T07:05:48.800Z,4.86
2018-11-29T07:06:48.786Z,4.94
2018-11-29T07:07:48.768Z,4.87
2018-11-29T07:08:48.753Z,4.80
2018-11-29T07:09:48.737Z,4.68
2018-11-29T07:10:48.722Z,4.68
2018-11-29T07:11:48.705Z,4.74
2018-11-29T07:12:48.689Z,4.80
2018-11-29T07:13:48.675Z,4.69
2018-11-29T07:14:48.658Z,4.80
2018-11-29T07:15:48.642Z,4.65
2018-11-29T07:16:48.627Z,4.74
2018-11-29T07:17:48.611Z,4.79
2018-11-29T07:18:48.595Z,4.80
2018-11-29T07:19:48.579Z,4.79
2018-11-29T07:20:48.562Z,4.91
2018-11-29T07:21:48.547Z,4.87
2018-11-29T07:22:48.531Z,4.80
2018-11-29T07:23:48.517Z,4.88
2018-11-29T07:24:48.499Z,4.91
2018-11-29T07:25:48.494Z,4.94
2018-11-29T07:26:48.475Z,4.80
2018-11-29T07:27:48.454Z,4.87
2018-11-29T07:28:48.436Z,4.97
2018-11-29T07:29:48.423Z,4.96
2018-11-29T07:30:48.406Z,4.94
2018-11-29T07:31:48.388Z,4.90
2018-11-29T07:32:48.375Z,4.77
2018-11-29T07:33:48.357Z,4.74
2018-11-29T07:34:48.345Z,4.77
2018-11-29T07:35:48.329Z,4.80
2018-11-29T07:36:48.311Z,4.84
2018-11-29T07:37:48.296Z,4.93
2018-11-29T07:38:48.279Z,4.80
2018-11-29T07:39:48.262Z,4.80
2018-11-29T07:40:48.244Z,4.72
2018-11-29T07:41:48.228Z,4.84
2018-11-29T07:42:48.217Z,4.77
2018-11-29T07:43:48.200Z,4.77
2018-11-29T07:44:48.182Z,4.84
2018-11-29T07:45:48.169Z,4.83
2018-11-29T07:46:48.152Z,4.68
2018-11-29T07:47:48.136Z,4.54
2018-11-29T07:48:48.185Z,4.56
2018-11-29T07:49:48.103Z,4.54
2018-11-29T07:50:48.090Z,4.79
2018-11-29T07:51:48.074Z,4.64
2018-11-29T07:52:48.055Z,4.80
2018-11-29T07:53:48.042Z,4.88
2018-11-29T07:54:48.025Z,4.91
2018-11-29T07:55:48.011Z,5.05
2018-11-29T07:56:47.995Z,4.94
2018-11-29T07:57:47.979Z,4.91
2018-11-29T07:58:51.743Z,4.87
2018-11-29T07:59:47.949Z,4.83
2018-11-29T08:00:47.933Z,4.83
2018-11-29T08:01:47.917Z,4.79
2018-11-29T08:02:47.900Z,4.75
2018-11-29T08:03:47.886Z,4.72
2018-11-29T08:04:47.870Z,4.74
2018-11-29T08:05:47.853Z,4.65
2018-11-29T08:06:47.840Z,4.80
2018-11-29T08:07:48.005Z,4.87
2018-11-29T08:08:47.806Z,4.69
2018-11-29T08:09:47.793Z,4.74
2018-11-29T08:10:47.777Z,4.83
2018-11-29T08:11:47.764Z,4.83
2018-11-29T08:12:47.746Z,4.86
2018-11-29T08:13:47.731Z,4.80
2018-11-29T08:14:47.716Z,4.68
2018-11-29T08:15:47.701Z,4.65
2018-11-29T08:16:47.685Z,4.69
2018-11-29T08:17:47.671Z,4.77
2018-11-29T08:18:47.654Z,4.74
2018-11-29T08:19:47.639Z,4.71
2018-11-29T08:20:47.621Z,4.67
2018-11-29T08:21:47.609Z,4.57
2018-11-29T08:22:47.591Z,4.56
2018-11-29T08:23:47.609Z,4.57
2018-11-29T08:24:47.562Z,4.56
2018-11-29T08:25:47.545Z,4.50
2018-11-29T08:26:47.531Z,4.46
2018-11-29T08:27:47.516Z,4.51
2018-11-29T08:28:47.498Z,4.44
2018-11-29T08:29:47.483Z,4.39
2018-11-29T08:30:47.471Z,4.59
2018-11-29T08:31:47.452Z,4.74
2018-11-29T08:32:47.436Z,4.71
2018-11-29T08:33:47.426Z,4.72
2018-11-29T08:34:47.407Z,4.84
2018-11-29T08:35:47.392Z,4.61
2018-11-29T08:36:47.376Z,4.53
2018-11-29T08:37:47.361Z,4.62
2018-11-29T08:38:47.346Z,4.71
2018-11-29T08:39:47.331Z,4.84
2018-11-29T08:40:47.317Z,4.86
2018-11-29T08:41:47.301Z,4.80
2018-11-29T08:42:47.287Z,4.86
2018-11-29T08:43:47.271Z,5.02
2018-11-29T08:44:47.255Z,5.14
2018-11-29T08:45:47.239Z,5.09
2018-11-29T08:46:47.226Z,5.05
2018-11-29T08:47:47.213Z,5.17
2018-11-29T08:48:47.194Z,5.24
2018-11-29T08:49:47.179Z,5.20
2018-11-29T08:50:47.163Z,5.17
2018-11-29T08:51:47.148Z,5.24
2018-11-29T08:52:47.133Z,5.22
2018-11-29T08:53:47.118Z,5.40
2018-11-29T08:54:47.105Z,5.49
2018-11-29T08:55:47.089Z,5.55
2018-11-29T08:56:47.072Z,5.74
2018-11-29T08:57:47.056Z,5.78
2018-11-29T08:58:47.043Z,5.75
2018-11-29T08:59:47.027Z,5.84
2018-11-29T09:00:47.012Z,5.74
2018-11-29T09:01:46.996Z,5.60
2018-11-29T09:02:46.984Z,5.55
2018-11-29T09:03:46.966Z,5.49
2018-11-29T09:04:46.951Z,5.45
2018-11-29T09:05:46.936Z,5.24
2018-11-29T09:06:46.923Z,5.22
2018-11-29T09:07:46.911Z,5.19
2018-11-29T09:08:46.890Z,5.15
2018-11-29T09:09:46.877Z,5.19
2018-11-29T09:10:46.863Z,5.12
2018-11-29T09:11:46.847Z,5.09
2018-11-29T09:12:46.832Z,5.09
2018-11-29T09:13:46.817Z,5.11
2018-11-29T09:14:46.803Z,5.22
2018-11-29T09:15:46.786Z,5.26
2018-11-29T09:16:46.771Z,5.23
2018-11-29T09:17:46.764Z,5.14
2018-11-29T09:18:46.747Z,5.20
2018-11-29T09:19:46.729Z,5.22
2018-11-29T09:20:46.713Z,5.20
2018-11-29T09:21:46.697Z,5.20
2018-11-29T09:22:46.690Z,5.19
2018-11-29T09:23:46.669Z,5.23
2018-11-29T09:24:46.654Z,5.17
2018-11-29T09:25:46.638Z,5.15
2018-11-29T09:26:46.629Z,5.06
2018-11-29T09:27:46.613Z,5.12
2018-11-29T09:28:46.596Z,5.20
2018-11-29T09:29:46.582Z,5.20
2018-11-29T09:30:46.567Z,5.17
2018-11-29T09:31:46.550Z,5.24
2018-11-29T09:32:46.535Z,5.24
2018-11-29T09:33:46.520Z,5.30
2018-11-29T09:34:46.505Z,5.30
2018-11-29T09:35:46.492Z,5.38
2018-11-29T09:36:46.477Z,5.40
2018-11-29T09:37:46.462Z,5.55
2018-11-29T09:38:46.450Z,5.44
2018-11-29T09:39:46.432Z,5.47
2018-11-29T09:40:46.420Z,5.40
2018-11-29T09:41:46.406Z,5.45
2018-11-29T09:42:46.389Z,5.41
2018-11-29T09:43:46.379Z,5.45
2018-11-29T09:44:46.360Z,5.48
2018-11-29T09:45:46.417Z,5.48
2018-11-29T09:46:46.332Z,5.48
2018-11-29T09:47:46.316Z,5.58
2018-11-29T09:48:46.301Z,5.58
2018-11-29T09:49:46.289Z,5.58
2018-11-29T09:50:46.274Z,5.56
2018-11-29T09:51:46.266Z,5.62
2018-11-29T09:52:46.247Z,5.56
2018-11-29T09:53:46.230Z,5.62
2018-11-29T09:54:46.231Z,5.67
2018-11-29T09:55:46.201Z,5.66
2018-11-29T09:56:46.188Z,5.67
2018-11-29T09:57:46.173Z,5.73
2018-11-29T09:58:46.158Z,5.73
2018-11-29T09:59:46.145Z,5.74
2018-11-29T10:00:46.130Z,5.67
2018-11-29T10:01:46.116Z,5.70
2018-11-29T10:02:46.100Z,5.69
2018-11-29T10:03:46.087Z,5.75
2018-11-29T10:04:46.071Z,5.74
2018-11-29T10:05:46.058Z,5.70
2018-11-29T10:06:46.044Z,5.87
2018-11-29T10:07:46.030Z,5.78
2018-11-29T10:08:46.013Z,5.95
2018-11-29T10:09:45.998Z,5.92
2018-11-29T10:10:45.985Z,5.92
2018-11-29T10:11:45.972Z,5.95
2018-11-29T10:12:45.957Z,5.93
2018-11-29T10:13:46.403Z,5.95
2018-11-29T10:14:45.927Z,5.95
2018-11-29T10:15:45.915Z,5.99
2018-11-29T10:16:45.898Z,6.05
2018-11-29T10:17:45.884Z,6.05
2018-11-29T10:18:45.872Z,6.21
2018-11-29T10:19:45.856Z,6.17
2018-11-29T10:20:45.842Z,6.20
2018-11-29T10:21:45.829Z,6.21
2018-11-29T10:22:45.816Z,6.33
2018-11-29T10:23:45.801Z,6.27
2018-11-29T10:24:45.784Z,6.28
2018-11-29T10:25:45.771Z,6.24
2018-11-29T10:26:45.756Z,6.24
2018-11-29T10:27:45.747Z,6.33
2018-11-29T10:28:45.727Z,6.25
2018-11-29T10:29:45.715Z,6.24
2018-11-29T10:30:45.704Z,6.27
2018-11-29T10:31:45.687Z,6.27
2018-11-29T10:32:45.672Z,6.27
2018-11-29T10:33:45.658Z,6.30
2018-11-29T10:34:45.644Z,6.30
2018-11-29T10:35:45.630Z,6.30
2018-11-29T10:36:45.616Z,6.27
2018-11-29T10:37:45.602Z,6.28
2018-11-29T10:38:45.588Z,6.25
2018-11-29T10:39:45.574Z,6.32
2018-11-29T10:40:45.560Z,6.30
2018-11-29T10:41:45.547Z,6.28
2018-11-29T10:42:45.531Z,6.45
2018-11-29T10:43:45.517Z,6.53
2018-11-29T10:44:45.501Z,6.55
2018-11-29T10:45:45.487Z,6.50
2018-11-29T10:46:45.475Z,6.50
2018-11-29T10:47:51.940Z,6.54
2018-11-29T10:48:45.444Z,6.50
2018-11-29T10:49:45.431Z,6.55
2018-11-29T10:50:45.417Z,6.61
2018-11-29T10:51:45.404Z,6.53
2018-11-29T10:52:45.389Z,6.54
2018-11-29T10:53:45.382Z,6.51
2018-11-29T10:54:45.362Z,6.54
2018-11-29T10:55:45.347Z,6.51
2018-11-29T10:56:45.333Z,6.60
2018-11-29T10:57:45.320Z,6.71
2018-11-29T10:58:45.305Z,6.68
2018-11-29T10:59:45.290Z,6.69
2018-11-29T11:00:45.277Z,6.68
2018-11-29T11:01:45.264Z,6.68
2018-11-29T11:02:45.249Z,6.68
2018-11-29T11:03:45.235Z,6.72
2018-11-29T11:04:45.220Z,6.73
2018-11-29T11:05:45.209Z,6.64
2018-11-29T11:06:45.194Z,6.61
2018-11-29T11:07:45.181Z,6.58
2018-11-29T11:08:45.167Z,6.63
2018-11-29T11:09:45.152Z,6.64
2018-11-29T11:10:45.138Z,6.63
2018-11-29T11:11:45.126Z,6.63
2018-11-29T11:12:45.110Z,6.69
2018-11-29T11:13:45.096Z,6.68
2018-11-29T11:14:45.084Z,6.65
2018-11-29T11:15:45.069Z,6.72
2018-11-29T11:16:45.056Z,6.58
2018-11-29T11:17:45.042Z,6.63
2018-11-29T11:18:45.029Z,6.58
2018-11-29T11:19:45.017Z,6.58
2018-11-29T11:20:44.998Z,6.54
2018-11-29T11:21:44.987Z,6.48
2018-11-29T11:22:44.972Z,6.43
2018-11-29T11:23:44.959Z,6.53
2018-11-29T11:24:44.945Z,6.40
2018-11-29T11:25:44.929Z,6.43
2018-11-29T11:26:44.915Z,6.46
2018-11-29T11:27:44.904Z,6.53
2018-11-29T11:28:44.893Z,6.60
2018-11-29T11:29:44.874Z,6.50
2018-11-29T11:30:44.862Z,6.61
2018-11-29T11:31:44.854Z,6.53
2018-11-29T11:32:44.832Z,6.58
2018-11-29T11:33:44.820Z,6.68
2018-11-29T11:34:44.806Z,6.65
2018-11-29T11:35:44.792Z,6.72
2018-11-29T11:36:44.778Z,6.75
2018-11-29T11:37:44.764Z,6.65
2018-11-29T11:38:44.749Z,6.79
2018-11-29T11:39:44.740Z,6.65
2018-11-29T11:40:44.723Z,6.76
2018-11-29T11:41:44.710Z,6.73
2018-11-29T11:42:44.696Z,6.68
2018-11-29T11:43:44.684Z,6.72
2018-11-29T11:44:44.669Z,6.72
2018-11-29T11:45:44.655Z,6.73
2018-11-29T11:46:44.641Z,6.90
2018-11-29T11:47:44.628Z,7.00
2018-11-29T11:48:44.860Z,6.93
2018-11-29T11:49:44.599Z,7.00
2018-11-29T11:50:44.591Z,6.96
2018-11-29T11:51:44.575Z,7.04
2018-11-29T11:52:44.576Z,7.01
2018-11-29T11:53:44.544Z,7.00
2018-11-29T11:54:44.531Z,7.05
2018-11-29T11:55:44.517Z,7.04
2018-11-29T11:56:44.503Z,7.00
2018-11-29T11:57:44.489Z,7.05
2018-11-29T11:58:44.473Z,7.23
2018-11-29T11:59:44.462Z,7.15
2018-11-29T12:00:44.447Z,7.23
2018-11-29T12:01:44.434Z,7.30
2018-11-29T12:02:44.535Z,7.30
2018-11-29T12:03:44.406Z,7.32
2018-11-29T12:04:48.592Z,7.34
2018-11-29T12:05:44.379Z,7.30
2018-11-29T12:06:44.363Z,7.39
2018-11-29T12:07:44.353Z,7.27
2018-11-29T12:08:44.338Z,7.33
2018-11-29T12:09:44.324Z,7.24
2018-11-29T12:10:44.308Z,7.42
2018-11-29T12:11:44.297Z,7.44
2018-11-29T12:12:44.282Z,7.50
2018-11-29T12:13:44.268Z,7.44
2018-11-29T12:14:44.258Z,7.44
2018-11-29T12:15:44.242Z,7.45
2018-11-29T12:16:44.227Z,7.33
2018-11-29T12:17:44.213Z,7.34
2018-11-29T12:18:44.200Z,7.32
2018-11-29T12:19:44.188Z,7.32
2018-11-29T12:20:44.174Z,7.33
2018-11-29T12:21:44.161Z,7.27
2018-11-29T12:22:44.147Z,7.32
2018-11-29T12:23:44.135Z,7.47
2018-11-29T12:24:44.121Z,7.27
2018-11-29T12:25:44.106Z,7.41
2018-11-29T12:26:44.094Z,7.37
2018-11-29T12:27:44.081Z,7.41
2018-11-29T12:28:44.066Z,7.45
2018-11-29T12:29:44.053Z,7.42
2018-11-29T12:30:44.041Z,7.33
2018-11-29T12:31:44.025Z,7.48
2018-11-29T12:32:44.012Z,7.26
2018-11-29T12:33:43.998Z,7.36
2018-11-29T12:34:43.986Z,7.29
2018-11-29T12:35:44.026Z,7.48
2018-11-29T12:36:43.958Z,7.50
2018-11-29T12:37:43.944Z,7.39
2018-11-29T12:38:43.933Z,7.44
2018-11-29T12:39:43.919Z,7.47
2018-11-29T12:40:43.903Z,7.54
2018-11-29T12:41:43.892Z,7.52
2018-11-29T12:42:43.879Z,7.55
2018-11-29T12:43:43.871Z,7.62
2018-11-29T12:44:43.851Z,7.70
2018-11-29T12:45:43.840Z,7.67
2018-11-29T12:46:43.827Z,7.58
2018-11-29T12:47:43.813Z,7.71
2018-11-29T12:48:43.799Z,7.62
2018-11-29T12:49:43.788Z,7.66
2018-11-29T12:50:43.834Z,7.62
2018-11-29T12:51:43.760Z,7.66
2018-11-29T12:52:43.752Z,7.69
2018-11-29T12:53:43.733Z,7.60
2018-11-29T12:54:43.720Z,7.63
2018-11-29T12:55:43.708Z,7.66
2018-11-29T12:56:43.694Z,7.58
2018-11-29T12:57:43.682Z,7.69
2018-11-29T12:58:43.672Z,7.62
2018-11-29T12:59:43.655Z,7.67
2018-11-29T13:00:43.641Z,7.63
2018-11-29T13:01:43.629Z,7.67
2018-11-29T13:02:43.615Z,7.66
2018-11-29T13:03:43.600Z,7.60
2018-11-29T13:04:43.588Z,7.55
2018-11-29T13:05:43.575Z,7.69
2018-11-29T13:06:43.562Z,7.45
2018-11-29T13:07:43.569Z,7.44
2018-11-29T13:08:43.533Z,7.54
2018-11-29T13:09:43.521Z,7.44
2018-11-29T13:10:43.508Z,7.47
2018-11-29T13:11:43.495Z,7.48
2018-11-29T13:12:43.481Z,7.41
2018-11-29T13:13:43.469Z,7.45
2018-11-29T13:14:43.457Z,7.37
2018-11-29T13:15:43.444Z,7.39
2018-11-29T13:16:43.429Z,7.41
2018-11-29T13:17:43.416Z,7.41
2018-11-29T13:18:43.402Z,7.44